sensor_id;sensor_type;location;lat;lon;timestamp;P1;durP1;ratioP1;P2;durP2;ratioP2
1779;SDS011;10019;46.670;14.260;2023-02-01T00:01:25;5.67;;;3.60;;
1779;SDS011;10019;46.670;14.260;2023-02-01T00:03:58;5.20;;;3.30;;
1779;SDS011;10019;46.670;14.260;2023-02-01T00:06:30;4.97;;;3.77;;
1779;SDS011;10019;46.670;14.260;2023-02-01T00:09:02;6.53;;;3.90;;
1779;SDS011;10019;46.670;14.260;2023-02-01T00:11:34;4.40;;;3.80;;
1779;SDS011;10019;46.670;14.260;2023-02-01T00:14:05;4.67;;;3.50;;
1779;SDS011;10019;46.670;14.260;2023-02-01T00:16:38;5.93;;;3.53;;
1779;SDS011;10019;46.670;14.260;2023-02-01T00:19:12;5.17;;;3.80;;
1779;SDS011;10019;46.670;14.260;2023-02-01T00:21:44;3.70;;;2.93;;
1779;SDS011;10019;46.670;14.260;2023-02-01T00:24:16;4.80;;;3.57;;
1779;SDS011;10019;46.670;14.260;2023-02-01T00:26:48;6.83;;;3.80;;
1779;SDS011;10019;46.670;14.260;2023-02-01T00:29:20;5.37;;;3.50;;
1779;SDS011;10019;46.670;14.260;2023-02-01T00:31:51;5.20;;;3.73;;
1779;SDS011;10019;46.670;14.260;2023-02-01T00:34:24;6.57;;;4.50;;
1779;SDS011;10019;46.670;14.260;2023-02-01T00:36:56;3.87;;;3.50;;
1779;SDS011;10019;46.670;14.260;2023-02-01T00:39:30;10.47;;;5.70;;
1779;SDS011;10019;46.670;14.260;2023-02-01T00:42:01;6.33;;;4.30;;
1779;SDS011;10019;46.670;14.260;2023-02-01T00:44:34;11.13;;;5.43;;
1779;SDS011;10019;46.670;14.260;2023-02-01T00:47:06;10.10;;;4.50;;
1779;SDS011;10019;46.670;14.260;2023-02-01T00:49:40;6.20;;;3.33;;
1779;SDS011;10019;46.670;14.260;2023-02-01T00:52:11;10.63;;;4.03;;
1779;SDS011;10019;46.670;14.260;2023-02-01T00:54:43;5.40;;;3.70;;
1779;SDS011;10019;46.670;14.260;2023-02-01T00:57:15;5.37;;;4.23;;
1779;SDS011;10019;46.670;14.260;2023-02-01T00:59:47;6.10;;;3.90;;
1779;SDS011;10019;46.670;14.260;2023-02-01T01:02:18;3.50;;;2.87;;
1779;SDS011;10019;46.670;14.260;2023-02-01T01:04:51;6.03;;;4.20;;
1779;SDS011;10019;46.670;14.260;2023-02-01T01:07:23;6.07;;;4.40;;
1779;SDS011;10019;46.670;14.260;2023-02-01T01:09:55;5.40;;;4.00;;
1779;SDS011;10019;46.670;14.260;2023-02-01T01:12:26;7.03;;;3.73;;
1779;SDS011;10019;46.670;14.260;2023-02-01T01:14:59;8.07;;;3.60;;
1779;SDS011;10019;46.670;14.260;2023-02-01T01:17:30;6.53;;;3.33;;
1779;SDS011;10019;46.670;14.260;2023-02-01T01:20:04;4.87;;;3.30;;
1779;SDS011;10019;46.670;14.260;2023-02-01T01:22:36;5.00;;;3.10;;
1779;SDS011;10019;46.670;14.260;2023-02-01T01:25:08;4.07;;;3.57;;
1779;SDS011;10019;46.670;14.260;2023-02-01T01:27:39;7.80;;;4.20;;
1779;SDS011;10019;46.670;14.260;2023-02-01T01:30:11;6.07;;;4.40;;
1779;SDS011;10019;46.670;14.260;2023-02-01T01:32:43;6.00;;;4.20;;
1779;SDS011;10019;46.670;14.260;2023-02-01T01:35:16;4.27;;;3.27;;
1779;SDS011;10019;46.670;14.260;2023-02-01T01:37:48;4.50;;;3.97;;
1779;SDS011;10019;46.670;14.260;2023-02-01T01:40:20;7.93;;;4.90;;
1779;SDS011;10019;46.670;14.260;2023-02-01T01:42:52;5.43;;;3.73;;
1779;SDS011;10019;46.670;14.260;2023-02-01T01:45:26;5.60;;;4.10;;
1779;SDS011;10019;46.670;14.260;2023-02-01T01:47:59;5.03;;;4.53;;
1779;SDS011;10019;46.670;14.260;2023-02-01T01:50:35;5.60;;;3.80;;
1779;SDS011;10019;46.670;14.260;2023-02-01T01:53:09;4.23;;;3.37;;
1779;SDS011;10019;46.670;14.260;2023-02-01T01:55:43;5.20;;;4.20;;
1779;SDS011;10019;46.670;14.260;2023-02-01T01:58:16;4.23;;;3.73;;
1779;SDS011;10019;46.670;14.260;2023-02-01T02:00:49;9.20;;;3.60;;
1779;SDS011;10019;46.670;14.260;2023-02-01T02:03:22;4.80;;;3.60;;
1779;SDS011;10019;46.670;14.260;2023-02-01T02:05:58;5.13;;;3.97;;
1779;SDS011;10019;46.670;14.260;2023-02-01T02:08:30;4.83;;;3.87;;
1779;SDS011;10019;46.670;14.260;2023-02-01T02:11:02;5.47;;;3.97;;
1779;SDS011;10019;46.670;14.260;2023-02-01T02:13:34;6.60;;;4.03;;
1779;SDS011;10019;46.670;14.260;2023-02-01T02:19:16;3.20;;;2.17;;
1779;SDS011;10019;46.670;14.260;2023-02-01T02:22:05;4.10;;;3.53;;
1779;SDS011;10019;46.670;14.260;2023-02-01T02:24:50;4.87;;;3.50;;
1779;SDS011;10019;46.670;14.260;2023-02-01T02:27:37;4.20;;;2.97;;
1779;SDS011;10019;46.670;14.260;2023-02-01T02:36:21;5.63;;;3.67;;
1779;SDS011;10019;46.670;14.260;2023-02-01T02:39:04;2.87;;;2.67;;
1779;SDS011;10019;46.670;14.260;2023-02-01T02:41:42;6.10;;;4.30;;
1779;SDS011;10019;46.670;14.260;2023-02-01T02:44:38;3.40;;;3.10;;
1779;SDS011;10019;46.670;14.260;2023-02-01T02:47:33;4.97;;;3.42;;
1779;SDS011;10019;46.670;14.260;2023-02-01T02:50:11;4.40;;;3.80;;
1779;SDS011;10019;46.670;14.260;2023-02-01T02:53:06;4.88;;;3.95;;
1779;SDS011;10019;46.670;14.260;2023-02-01T02:55:55;4.55;;;3.78;;
1779;SDS011;10019;46.670;14.260;2023-02-01T02:58:45;5.38;;;3.58;;
1779;SDS011;10019;46.670;14.260;2023-02-01T03:01:34;8.75;;;3.72;;
1779;SDS011;10019;46.670;14.260;2023-02-01T03:04:24;7.32;;;3.40;;
1779;SDS011;10019;46.670;14.260;2023-02-01T03:06:56;3.83;;;3.42;;
1779;SDS011;10019;46.670;14.260;2023-02-01T03:09:30;3.75;;;3.22;;
1779;SDS011;10019;46.670;14.260;2023-02-01T03:12:06;4.30;;;3.72;;
1779;SDS011;10019;46.670;14.260;2023-02-01T03:15:00;7.47;;;5.30;;
1779;SDS011;10019;46.670;14.260;2023-02-01T03:17:37;5.72;;;2.83;;
1779;SDS011;10019;46.670;14.260;2023-02-01T03:20:11;7.85;;;5.00;;
1779;SDS011;10019;46.670;14.260;2023-02-01T03:22:44;5.47;;;4.72;;
1779;SDS011;10019;46.670;14.260;2023-02-01T03:25:21;4.88;;;4.20;;
1779;SDS011;10019;46.670;14.260;2023-02-01T03:27:56;18.50;;;5.50;;
1779;SDS011;10019;46.670;14.260;2023-02-01T03:30:31;4.77;;;3.50;;
1779;SDS011;10019;46.670;14.260;2023-02-01T03:33:06;4.40;;;3.55;;
1779;SDS011;10019;46.670;14.260;2023-02-01T03:35:44;5.10;;;3.50;;
1779;SDS011;10019;46.670;14.260;2023-02-01T03:38:22;6.53;;;3.63;;
1779;SDS011;10019;46.670;14.260;2023-02-01T03:40:57;5.55;;;3.95;;
1779;SDS011;10019;46.670;14.260;2023-02-01T03:43:35;82.72;;;30.33;;
1779;SDS011;10019;46.670;14.260;2023-02-01T03:46:11;35.25;;;15.82;;
1779;SDS011;10019;46.670;14.260;2023-02-01T03:48:44;7.45;;;5.20;;
1779;SDS011;10019;46.670;14.260;2023-02-01T03:51:16;4.50;;;3.45;;
1779;SDS011;10019;46.670;14.260;2023-02-01T03:53:49;5.95;;;3.42;;
1779;SDS011;10019;46.670;14.260;2023-02-01T03:56:23;4.30;;;2.55;;
1779;SDS011;10019;46.670;14.260;2023-02-01T03:58:56;10.07;;;3.22;;
1779;SDS011;10019;46.670;14.260;2023-02-01T04:01:31;4.70;;;3.35;;
1779;SDS011;10019;46.670;14.260;2023-02-01T04:04:03;8.45;;;3.17;;
1779;SDS011;10019;46.670;14.260;2023-02-01T04:06:35;4.95;;;3.55;;
1779;SDS011;10019;46.670;14.260;2023-02-01T04:09:07;3.95;;;3.38;;
1779;SDS011;10019;46.670;14.260;2023-02-01T04:11:40;5.75;;;3.25;;
1779;SDS011;10019;46.670;14.260;2023-02-01T04:14:12;5.60;;;4.03;;
1779;SDS011;10019;46.670;14.260;2023-02-01T04:16:43;7.75;;;3.38;;
1779;SDS011;10019;46.670;14.260;2023-02-01T04:19:15;3.80;;;3.33;;
1779;SDS011;10019;46.670;14.260;2023-02-01T04:21:47;3.55;;;3.25;;
1779;SDS011;10019;46.670;14.260;2023-02-01T04:24:19;3.83;;;2.95;;
1779;SDS011;10019;46.670;14.260;2023-02-01T04:26:52;8.55;;;4.00;;
1779;SDS011;10019;46.670;14.260;2023-02-01T04:29:25;2.55;;;2.35;;
1779;SDS011;10019;46.670;14.260;2023-02-01T04:31:56;4.82;;;3.78;;
1779;SDS011;10019;46.670;14.260;2023-02-01T04:34:28;4.60;;;3.47;;
1779;SDS011;10019;46.670;14.260;2023-02-01T04:37:00;4.78;;;2.47;;
1779;SDS011;10019;46.670;14.260;2023-02-01T04:39:32;2.65;;;1.80;;
1779;SDS011;10019;46.670;14.260;2023-02-01T04:42:05;4.82;;;2.85;;
1779;SDS011;10019;46.670;14.260;2023-02-01T04:44:38;4.55;;;3.08;;
1779;SDS011;10019;46.670;14.260;2023-02-01T04:47:11;4.40;;;3.03;;
1779;SDS011;10019;46.670;14.260;2023-02-01T04:49:44;4.28;;;2.42;;
1779;SDS011;10019;46.670;14.260;2023-02-01T04:52:16;4.10;;;3.00;;
1779;SDS011;10019;46.670;14.260;2023-02-01T04:54:47;2.65;;;2.33;;
1779;SDS011;10019;46.670;14.260;2023-02-01T04:57:21;3.30;;;3.00;;
1779;SDS011;10019;46.670;14.260;2023-02-01T04:59:52;5.95;;;3.17;;
1779;SDS011;10019;46.670;14.260;2023-02-01T05:02:24;6.90;;;2.65;;
1779;SDS011;10019;46.670;14.260;2023-02-01T05:04:56;3.67;;;2.92;;
1779;SDS011;10019;46.670;14.260;2023-02-01T05:07:27;5.45;;;3.50;;
1779;SDS011;10019;46.670;14.260;2023-02-01T05:09:59;3.90;;;3.50;;
1779;SDS011;10019;46.670;14.260;2023-02-01T05:12:32;6.18;;;3.58;;
1779;SDS011;10019;46.670;14.260;2023-02-01T05:15:22;7.13;;;3.35;;
1779;SDS011;10019;46.670;14.260;2023-02-01T05:17:53;8.88;;;4.55;;
1779;SDS011;10019;46.670;14.260;2023-02-01T05:20:25;7.55;;;5.45;;
1779;SDS011;10019;46.670;14.260;2023-02-01T05:22:57;5.55;;;3.65;;
1779;SDS011;10019;46.670;14.260;2023-02-01T05:25:28;5.50;;;4.03;;
1779;SDS011;10019;46.670;14.260;2023-02-01T05:28:02;7.63;;;3.22;;
1779;SDS011;10019;46.670;14.260;2023-02-01T05:30:33;3.28;;;2.97;;
1779;SDS011;10019;46.670;14.260;2023-02-01T05:33:05;4.03;;;2.80;;
1779;SDS011;10019;46.670;14.260;2023-02-01T05:35:37;5.05;;;2.90;;
1779;SDS011;10019;46.670;14.260;2023-02-01T05:38:09;5.68;;;3.67;;
1779;SDS011;10019;46.670;14.260;2023-02-01T05:40:40;4.15;;;3.70;;
1779;SDS011;10019;46.670;14.260;2023-02-01T05:43:14;3.80;;;2.50;;
1779;SDS011;10019;46.670;14.260;2023-02-01T05:45:45;4.05;;;3.05;;
1779;SDS011;10019;46.670;14.260;2023-02-01T05:48:17;4.22;;;3.72;;
1779;SDS011;10019;46.670;14.260;2023-02-01T05:50:49;5.82;;;3.88;;
1779;SDS011;10019;46.670;14.260;2023-02-01T05:53:21;6.45;;;4.30;;
1779;SDS011;10019;46.670;14.260;2023-02-01T05:55:53;4.22;;;3.03;;
1779;SDS011;10019;46.670;14.260;2023-02-01T05:58:26;3.72;;;3.10;;
1779;SDS011;10019;46.670;14.260;2023-02-01T06:00:58;5.60;;;4.00;;
1779;SDS011;10019;46.670;14.260;2023-02-01T06:03:30;4.00;;;3.38;;
1779;SDS011;10019;46.670;14.260;2023-02-01T06:06:02;9.63;;;6.18;;
1779;SDS011;10019;46.670;14.260;2023-02-01T06:08:34;9.70;;;7.05;;
1779;SDS011;10019;46.670;14.260;2023-02-01T06:11:05;8.90;;;6.32;;
1779;SDS011;10019;46.670;14.260;2023-02-01T06:13:39;8.55;;;5.30;;
1779;SDS011;10019;46.670;14.260;2023-02-01T06:16:11;7.80;;;6.15;;
1779;SDS011;10019;46.670;14.260;2023-02-01T06:18:45;9.68;;;5.55;;
1779;SDS011;10019;46.670;14.260;2023-02-01T06:21:16;5.80;;;4.45;;
1779;SDS011;10019;46.670;14.260;2023-02-01T06:23:53;4.60;;;4.00;;
1779;SDS011;10019;46.670;14.260;2023-02-01T06:26:27;5.35;;;4.10;;
1779;SDS011;10019;46.670;14.260;2023-02-01T06:29:01;12.43;;;6.35;;
1779;SDS011;10019;46.670;14.260;2023-02-01T06:31:33;16.45;;;8.57;;
1779;SDS011;10019;46.670;14.260;2023-02-01T06:34:04;8.57;;;5.60;;
1779;SDS011;10019;46.670;14.260;2023-02-01T06:36:36;5.88;;;4.15;;
1779;SDS011;10019;46.670;14.260;2023-02-01T06:39:08;10.00;;;4.78;;
1779;SDS011;10019;46.670;14.260;2023-02-01T06:41:40;11.93;;;3.72;;
1779;SDS011;10019;46.670;14.260;2023-02-01T06:44:14;4.55;;;3.90;;
1779;SDS011;10019;46.670;14.260;2023-02-01T06:46:45;8.35;;;3.20;;
1779;SDS011;10019;46.670;14.260;2023-02-01T06:49:17;8.98;;;3.65;;
1779;SDS011;10019;46.670;14.260;2023-02-01T06:51:49;6.53;;;3.92;;
1779;SDS011;10019;46.670;14.260;2023-02-01T06:54:21;12.38;;;4.53;;
1779;SDS011;10019;46.670;14.260;2023-02-01T06:56:53;5.07;;;3.80;;
1779;SDS011;10019;46.670;14.260;2023-02-01T06:59:26;7.38;;;5.63;;
1779;SDS011;10019;46.670;14.260;2023-02-01T07:01:58;6.22;;;5.20;;
1779;SDS011;10019;46.670;14.260;2023-02-01T07:04:30;9.25;;;4.70;;
1779;SDS011;10019;46.670;14.260;2023-02-01T07:07:02;6.43;;;4.43;;
1779;SDS011;10019;46.670;14.260;2023-02-01T07:09:33;10.30;;;4.43;;
1779;SDS011;10019;46.670;14.260;2023-02-01T07:12:06;5.10;;;4.40;;
1779;SDS011;10019;46.670;14.260;2023-02-01T07:14:39;5.80;;;3.83;;
1779;SDS011;10019;46.670;14.260;2023-02-01T07:17:11;10.45;;;6.80;;
1779;SDS011;10019;46.670;14.260;2023-02-01T07:19:42;8.73;;;6.47;;
1779;SDS011;10019;46.670;14.260;2023-02-01T07:22:15;14.10;;;7.30;;
1779;SDS011;10019;46.670;14.260;2023-02-01T07:24:47;12.98;;;9.18;;
1779;SDS011;10019;46.670;14.260;2023-02-01T07:27:19;12.93;;;7.38;;
1779;SDS011;10019;46.670;14.260;2023-02-01T07:29:52;19.75;;;8.55;;
1779;SDS011;10019;46.670;14.260;2023-02-01T07:32:25;13.68;;;7.32;;
1779;SDS011;10019;46.670;14.260;2023-02-01T07:34:57;15.45;;;9.05;;
1779;SDS011;10019;46.670;14.260;2023-02-01T07:37:29;10.95;;;8.05;;
1779;SDS011;10019;46.670;14.260;2023-02-01T07:40:01;20.80;;;9.32;;
1779;SDS011;10019;46.670;14.260;2023-02-01T07:42:33;10.45;;;8.40;;
1779;SDS011;10019;46.670;14.260;2023-02-01T07:45:07;9.82;;;8.02;;
1779;SDS011;10019;46.670;14.260;2023-02-01T07:47:39;14.63;;;8.05;;
1779;SDS011;10019;46.670;14.260;2023-02-01T07:50:11;16.23;;;7.35;;
1779;SDS011;10019;46.670;14.260;2023-02-01T07:52:42;9.15;;;6.15;;
1779;SDS011;10019;46.670;14.260;2023-02-01T07:55:14;6.43;;;5.28;;
1779;SDS011;10019;46.670;14.260;2023-02-01T07:57:46;8.20;;;5.13;;
1779;SDS011;10019;46.670;14.260;2023-02-01T08:00:20;11.10;;;7.15;;
1779;SDS011;10019;46.670;14.260;2023-02-01T08:03:09;11.35;;;6.65;;
1779;SDS011;10019;46.670;14.260;2023-02-01T08:05:41;13.57;;;7.40;;
1779;SDS011;10019;46.670;14.260;2023-02-01T08:08:13;7.20;;;6.20;;
1779;SDS011;10019;46.670;14.260;2023-02-01T08:10:45;12.13;;;5.78;;
1779;SDS011;10019;46.670;14.260;2023-02-01T08:13:16;7.07;;;6.27;;
1779;SDS011;10019;46.670;14.260;2023-02-01T08:15:49;7.93;;;7.10;;
1779;SDS011;10019;46.670;14.260;2023-02-01T08:18:21;7.63;;;6.30;;
1779;SDS011;10019;46.670;14.260;2023-02-01T08:20:53;16.43;;;11.07;;
1779;SDS011;10019;46.670;14.260;2023-02-01T08:23:24;18.70;;;10.80;;
1779;SDS011;10019;46.670;14.260;2023-02-01T08:26:03;13.47;;;7.77;;
1779;SDS011;10019;46.670;14.260;2023-02-01T08:28:36;11.37;;;7.87;;
1779;SDS011;10019;46.670;14.260;2023-02-01T08:31:10;12.80;;;7.33;;
1779;SDS011;10019;46.670;14.260;2023-02-01T08:33:47;11.67;;;6.70;;
1779;SDS011;10019;46.670;14.260;2023-02-01T08:36:20;13.83;;;7.33;;
1779;SDS011;10019;46.670;14.260;2023-02-01T08:38:52;14.67;;;7.53;;
1779;SDS011;10019;46.670;14.260;2023-02-01T08:41:25;12.83;;;7.90;;
1779;SDS011;10019;46.670;14.260;2023-02-01T08:43:57;12.10;;;6.67;;
1779;SDS011;10019;46.670;14.260;2023-02-01T08:46:31;15.63;;;7.00;;
1779;SDS011;10019;46.670;14.260;2023-02-01T08:49:02;9.97;;;5.60;;
1779;SDS011;10019;46.670;14.260;2023-02-01T08:51:34;8.50;;;6.10;;
1779;SDS011;10019;46.670;14.260;2023-02-01T08:54:06;10.40;;;6.93;;
1779;SDS011;10019;46.670;14.260;2023-02-01T08:56:37;12.27;;;6.80;;
1779;SDS011;10019;46.670;14.260;2023-02-01T08:59:09;15.53;;;7.00;;
1779;SDS011;10019;46.670;14.260;2023-02-01T09:01:42;7.60;;;5.97;;
1779;SDS011;10019;46.670;14.260;2023-02-01T09:04:14;9.60;;;6.33;;
1779;SDS011;10019;46.670;14.260;2023-02-01T09:06:46;6.90;;;5.33;;
1779;SDS011;10019;46.670;14.260;2023-02-01T09:09:17;6.43;;;5.37;;
1779;SDS011;10019;46.670;14.260;2023-02-01T09:11:49;11.30;;;6.70;;
1779;SDS011;10019;46.670;14.260;2023-02-01T09:14:21;8.10;;;6.63;;
1779;SDS011;10019;46.670;14.260;2023-02-01T09:16:54;8.47;;;6.57;;
1779;SDS011;10019;46.670;14.260;2023-02-01T09:19:26;10.73;;;4.90;;
1779;SDS011;10019;46.670;14.260;2023-02-01T09:21:58;9.87;;;5.60;;
1779;SDS011;10019;46.670;14.260;2023-02-01T09:24:30;10.27;;;5.53;;
1779;SDS011;10019;46.670;14.260;2023-02-01T09:27:01;11.70;;;5.60;;
1779;SDS011;10019;46.670;14.260;2023-02-01T09:29:33;8.30;;;5.93;;
1779;SDS011;10019;46.670;14.260;2023-02-01T09:32:06;6.63;;;5.40;;
1779;SDS011;10019;46.670;14.260;2023-02-01T09:34:38;11.20;;;6.20;;
1779;SDS011;10019;46.670;14.260;2023-02-01T09:37:10;6.37;;;5.17;;
1779;SDS011;10019;46.670;14.260;2023-02-01T09:39:41;9.47;;;5.33;;
1779;SDS011;10019;46.670;14.260;2023-02-01T09:42:20;9.90;;;6.77;;
1779;SDS011;10019;46.670;14.260;2023-02-01T09:44:58;7.83;;;5.50;;
1779;SDS011;10019;46.670;14.260;2023-02-01T09:47:37;7.30;;;5.43;;
1779;SDS011;10019;46.670;14.260;2023-02-01T09:50:15;7.00;;;5.60;;
1779;SDS011;10019;46.670;14.260;2023-02-01T09:52:52;9.33;;;5.53;;
1779;SDS011;10019;46.670;14.260;2023-02-01T09:55:29;9.20;;;5.63;;
1779;SDS011;10019;46.670;14.260;2023-02-01T09:58:06;10.80;;;6.07;;
1779;SDS011;10019;46.670;14.260;2023-02-01T10:00:39;9.40;;;5.80;;
1779;SDS011;10019;46.670;14.260;2023-02-01T10:03:12;9.93;;;5.83;;
1779;SDS011;10019;46.670;14.260;2023-02-01T10:05:52;11.43;;;6.20;;
1779;SDS011;10019;46.670;14.260;2023-02-01T10:08:33;8.77;;;5.47;;
1779;SDS011;10019;46.670;14.260;2023-02-01T10:11:15;8.47;;;5.33;;
1779;SDS011;10019;46.670;14.260;2023-02-01T10:13:54;6.27;;;4.90;;
1779;SDS011;10019;46.670;14.260;2023-02-01T10:16:31;9.77;;;5.87;;
1779;SDS011;10019;46.670;14.260;2023-02-01T10:19:14;7.37;;;5.40;;
1779;SDS011;10019;46.670;14.260;2023-02-01T10:21:58;7.57;;;6.17;;
1779;SDS011;10019;46.670;14.260;2023-02-01T10:24:42;6.80;;;6.00;;
1779;SDS011;10019;46.670;14.260;2023-02-01T10:27:16;9.43;;;5.70;;
1779;SDS011;10019;46.670;14.260;2023-02-01T10:29:51;6.63;;;5.70;;
1779;SDS011;10019;46.670;14.260;2023-02-01T10:32:27;9.37;;;6.10;;
1779;SDS011;10019;46.670;14.260;2023-02-01T10:35:02;8.47;;;6.60;;
1779;SDS011;10019;46.670;14.260;2023-02-01T10:37:40;7.43;;;5.43;;
1779;SDS011;10019;46.670;14.260;2023-02-01T10:40:15;5.80;;;5.00;;
1779;SDS011;10019;46.670;14.260;2023-02-01T10:42:50;8.80;;;6.20;;
1779;SDS011;10019;46.670;14.260;2023-02-01T10:45:24;5.67;;;5.00;;
1779;SDS011;10019;46.670;14.260;2023-02-01T10:47:58;5.83;;;5.23;;
1779;SDS011;10019;46.670;14.260;2023-02-01T10:50:35;7.53;;;5.50;;
1779;SDS011;10019;46.670;14.260;2023-02-01T10:53:10;5.87;;;5.27;;
1779;SDS011;10019;46.670;14.260;2023-02-01T10:55:47;9.70;;;7.30;;
1779;SDS011;10019;46.670;14.260;2023-02-01T10:58:25;9.90;;;7.23;;
1779;SDS011;10019;46.670;14.260;2023-02-01T11:00:59;8.00;;;6.90;;
1779;SDS011;10019;46.670;14.260;2023-02-01T11:03:36;9.30;;;6.83;;
1779;SDS011;10019;46.670;14.260;2023-02-01T11:06:21;8.80;;;6.40;;
1779;SDS011;10019;46.670;14.260;2023-02-01T11:08:58;15.20;;;6.60;;
1779;SDS011;10019;46.670;14.260;2023-02-01T11:11:31;9.93;;;6.63;;
1779;SDS011;10019;46.670;14.260;2023-02-01T11:14:12;7.37;;;6.17;;
1779;SDS011;10019;46.670;14.260;2023-02-01T11:16:47;9.80;;;7.03;;
1779;SDS011;10019;46.670;14.260;2023-02-01T11:19:20;14.63;;;6.70;;
1779;SDS011;10019;46.670;14.260;2023-02-01T11:21:54;9.37;;;6.77;;
1779;SDS011;10019;46.670;14.260;2023-02-01T11:24:28;10.53;;;7.10;;
1779;SDS011;10019;46.670;14.260;2023-02-01T11:27:02;7.90;;;6.97;;
1779;SDS011;10019;46.670;14.260;2023-02-01T11:29:35;12.00;;;7.37;;
1779;SDS011;10019;46.670;14.260;2023-02-01T11:32:10;7.87;;;6.53;;
1779;SDS011;10019;46.670;14.260;2023-02-01T11:34:45;12.40;;;7.60;;
1779;SDS011;10019;46.670;14.260;2023-02-01T11:37:20;10.10;;;6.80;;
1779;SDS011;10019;46.670;14.260;2023-02-01T11:39:54;8.87;;;6.27;;
1779;SDS011;10019;46.670;14.260;2023-02-01T11:42:27;10.10;;;5.70;;
1779;SDS011;10019;46.670;14.260;2023-02-01T11:45:19;8.90;;;6.00;;
1779;SDS011;10019;46.670;14.260;2023-02-01T11:47:52;7.47;;;6.10;;
1779;SDS011;10019;46.670;14.260;2023-02-01T11:50:29;9.70;;;7.30;;
1779;SDS011;10019;46.670;14.260;2023-02-01T11:53:09;8.87;;;7.53;;
1779;SDS011;10019;46.670;14.260;2023-02-01T11:56:00;14.50;;;8.17;;
1779;SDS011;10019;46.670;14.260;2023-02-01T11:58:56;11.70;;;8.23;;
1779;SDS011;10019;46.670;14.260;2023-02-01T12:01:42;10.60;;;7.77;;
1779;SDS011;10019;46.670;14.260;2023-02-01T12:04:29;8.53;;;7.63;;
1779;SDS011;10019;46.670;14.260;2023-02-01T12:07:14;9.10;;;7.87;;
1779;SDS011;10019;46.670;14.260;2023-02-01T12:10:03;12.23;;;8.47;;
1779;SDS011;10019;46.670;14.260;2023-02-01T12:12:42;9.27;;;7.40;;
1779;SDS011;10019;46.670;14.260;2023-02-01T12:15:22;13.50;;;7.57;;
1779;SDS011;10019;46.670;14.260;2023-02-01T12:18:06;12.47;;;7.67;;
1779;SDS011;10019;46.670;14.260;2023-02-01T12:20:54;13.90;;;8.40;;
1779;SDS011;10019;46.670;14.260;2023-02-01T12:23:41;11.40;;;8.33;;
1779;SDS011;10019;46.670;14.260;2023-02-01T12:26:34;10.90;;;8.37;;
1779;SDS011;10019;46.670;14.260;2023-02-01T12:29:23;8.27;;;7.47;;
1779;SDS011;10019;46.670;14.260;2023-02-01T12:32:05;13.90;;;8.00;;
1779;SDS011;10019;46.670;14.260;2023-02-01T12:34:45;8.20;;;7.37;;
1779;SDS011;10019;46.670;14.260;2023-02-01T12:37:29;8.83;;;7.33;;
1779;SDS011;10019;46.670;14.260;2023-02-01T12:40:15;9.57;;;8.50;;
1779;SDS011;10019;46.670;14.260;2023-02-01T12:42:56;13.43;;;9.40;;
1779;SDS011;10019;46.670;14.260;2023-02-01T12:45:32;12.23;;;8.10;;
1779;SDS011;10019;46.670;14.260;2023-02-01T12:48:11;12.17;;;7.70;;
1779;SDS011;10019;46.670;14.260;2023-02-01T12:50:53;12.03;;;8.30;;
1779;SDS011;10019;46.670;14.260;2023-02-01T12:53:27;12.83;;;8.00;;
1779;SDS011;10019;46.670;14.260;2023-02-01T12:56:02;16.07;;;8.90;;
1779;SDS011;10019;46.670;14.260;2023-02-01T12:58:40;12.40;;;9.20;;
1779;SDS011;10019;46.670;14.260;2023-02-01T13:01:15;15.10;;;9.90;;
1779;SDS011;10019;46.670;14.260;2023-02-01T13:03:52;14.10;;;10.03;;
1779;SDS011;10019;46.670;14.260;2023-02-01T13:06:28;18.70;;;10.67;;
1779;SDS011;10019;46.670;14.260;2023-02-01T13:09:03;16.23;;;9.50;;
1779;SDS011;10019;46.670;14.260;2023-02-01T13:11:39;17.70;;;10.20;;
1779;SDS011;10019;46.670;14.260;2023-02-01T13:14:19;16.47;;;9.80;;
1779;SDS011;10019;46.670;14.260;2023-02-01T13:16:58;15.03;;;10.43;;
1779;SDS011;10019;46.670;14.260;2023-02-01T13:19:36;15.20;;;9.40;;
1779;SDS011;10019;46.670;14.260;2023-02-01T13:22:13;16.10;;;9.50;;
1779;SDS011;10019;46.670;14.260;2023-02-01T13:24:49;17.40;;;10.00;;
1779;SDS011;10019;46.670;14.260;2023-02-01T13:27:25;13.03;;;9.57;;
1779;SDS011;10019;46.670;14.260;2023-02-01T13:30:02;13.33;;;9.70;;
1779;SDS011;10019;46.670;14.260;2023-02-01T13:32:48;15.07;;;10.13;;
1779;SDS011;10019;46.670;14.260;2023-02-01T13:35:47;10.20;;;7.57;;
1779;SDS011;10019;46.670;14.260;2023-02-01T13:38:49;10.67;;;8.30;;
1779;SDS011;10019;46.670;14.260;2023-02-01T13:41:49;13.03;;;8.50;;
1779;SDS011;10019;46.670;14.260;2023-02-01T13:44:25;8.83;;;7.50;;
1779;SDS011;10019;46.670;14.260;2023-02-01T13:47:08;17.47;;;7.87;;
1779;SDS011;10019;46.670;14.260;2023-02-01T13:49:44;8.67;;;7.40;;
1779;SDS011;10019;46.670;14.260;2023-02-01T13:52:24;9.43;;;7.73;;
1779;SDS011;10019;46.670;14.260;2023-02-01T13:55:03;10.37;;;7.67;;
1779;SDS011;10019;46.670;14.260;2023-02-01T13:57:46;14.37;;;7.27;;
1779;SDS011;10019;46.670;14.260;2023-02-01T14:00:23;13.57;;;6.97;;
1779;SDS011;10019;46.670;14.260;2023-02-01T14:05:59;13.20;;;7.20;;
1779;SDS011;10019;46.670;14.260;2023-02-01T14:08:37;9.43;;;7.50;;
1779;SDS011;10019;46.670;14.260;2023-02-01T14:11:32;18.77;;;7.23;;
1779;SDS011;10019;46.670;14.260;2023-02-01T14:14:37;10.83;;;7.17;;
1779;SDS011;10019;46.670;14.260;2023-02-01T14:23:30;8.70;;;7.30;;
1779;SDS011;10019;46.670;14.260;2023-02-01T14:26:12;11.10;;;7.60;;
1779;SDS011;10019;46.670;14.260;2023-02-01T14:28:53;11.17;;;7.03;;
1779;SDS011;10019;46.670;14.260;2023-02-01T14:31:33;10.60;;;7.37;;
1779;SDS011;10019;46.670;14.260;2023-02-01T14:34:11;7.50;;;6.50;;
1779;SDS011;10019;46.670;14.260;2023-02-01T14:36:47;9.53;;;6.10;;
1779;SDS011;10019;46.670;14.260;2023-02-01T14:39:25;11.30;;;7.23;;
1779;SDS011;10019;46.670;14.260;2023-02-01T14:42:00;15.80;;;7.87;;
1779;SDS011;10019;46.670;14.260;2023-02-01T14:44:34;10.50;;;7.00;;
1779;SDS011;10019;46.670;14.260;2023-02-01T14:47:25;8.27;;;7.03;;
1779;SDS011;10019;46.670;14.260;2023-02-01T14:50:13;9.77;;;6.57;;
1779;SDS011;10019;46.670;14.260;2023-02-01T14:53:03;11.23;;;6.37;;
1779;SDS011;10019;46.670;14.260;2023-02-01T14:55:42;8.70;;;6.10;;
1779;SDS011;10019;46.670;14.260;2023-02-01T14:58:16;9.30;;;5.93;;
1779;SDS011;10019;46.670;14.260;2023-02-01T15:00:59;6.93;;;6.10;;
1779;SDS011;10019;46.670;14.260;2023-02-01T15:03:35;9.17;;;6.57;;
1779;SDS011;10019;46.670;14.260;2023-02-01T15:06:21;13.57;;;7.40;;
1779;SDS011;10019;46.670;14.260;2023-02-01T15:08:58;8.80;;;6.97;;
1779;SDS011;10019;46.670;14.260;2023-02-01T15:11:33;9.40;;;7.27;;
1779;SDS011;10019;46.670;14.260;2023-02-01T15:14:25;16.13;;;6.93;;
1779;SDS011;10019;46.670;14.260;2023-02-01T15:16:57;26.03;;;14.10;;
1779;SDS011;10019;46.670;14.260;2023-02-01T15:19:30;13.47;;;9.13;;
1779;SDS011;10019;46.670;14.260;2023-02-01T15:22:01;11.23;;;7.63;;
1779;SDS011;10019;46.670;14.260;2023-02-01T15:24:33;9.07;;;7.13;;
1779;SDS011;10019;46.670;14.260;2023-02-01T15:27:08;14.33;;;7.80;;
1779;SDS011;10019;46.670;14.260;2023-02-01T15:29:41;9.87;;;6.97;;
1779;SDS011;10019;46.670;14.260;2023-02-01T15:32:27;11.43;;;7.30;;
1779;SDS011;10019;46.670;14.260;2023-02-01T15:35:01;15.27;;;8.70;;
1779;SDS011;10019;46.670;14.260;2023-02-01T15:37:33;12.23;;;8.60;;
1779;SDS011;10019;46.670;14.260;2023-02-01T15:40:17;13.27;;;9.20;;
1779;SDS011;10019;46.670;14.260;2023-02-01T15:42:54;17.20;;;8.10;;
1779;SDS011;10019;46.670;14.260;2023-02-01T15:45:28;14.43;;;7.70;;
1779;SDS011;10019;46.670;14.260;2023-02-01T15:48:01;9.53;;;7.37;;
1779;SDS011;10019;46.670;14.260;2023-02-01T15:50:33;11.30;;;7.97;;
1779;SDS011;10019;46.670;14.260;2023-02-01T15:53:12;10.50;;;7.77;;